createdAt,value
2019-01-26T00:02:29.050Z,59.37
2019-01-26T00:05:00.291Z,54.63
2019-01-26T00:07:32.216Z,59.53
2019-01-26T00:10:01.596Z,60.00
2019-01-26T00:12:32.699Z,60.03
2019-01-26T00:15:02.111Z,56.17
2019-01-26T00:17:31.496Z,56.00
2019-01-26T00:20:02.256Z,53.47
2019-01-26T00:22:32.778Z,65.33
2019-01-26T00:25:02.181Z,60.15
2019-01-26T00:27:31.812Z,53.67
2019-01-26T00:30:02.241Z,53.00
2019-01-26T00:32:31.615Z,60.12
2019-01-26T00:35:04.527Z,54.93
2019-01-26T00:37:35.411Z,55.90
2019-01-26T00:40:06.251Z,50.67
2019-01-26T00:42:35.778Z,52.47
2019-01-26T00:45:06.399Z,55.37
2019-01-26T00:47:37.591Z,50.53
2019-01-26T00:50:07.417Z,48.77
2019-01-26T00:52:36.788Z,51.97
2019-01-26T00:55:07.113Z,52.73
2019-01-26T00:57:37.150Z,53.17
2019-01-26T01:00:08.840Z,55.57
2019-01-26T01:02:38.211Z,50.30
2019-01-26T01:05:08.845Z,46.93
2019-01-26T01:07:38.257Z,49.70
2019-01-26T01:10:09.521Z,51.07
2019-01-26T01:12:39.025Z,52.10
2019-01-26T01:15:09.703Z,48.47
2019-01-26T01:17:39.078Z,52.00
2019-01-26T01:20:09.282Z,48.23
2019-01-26T01:22:38.690Z,47.40
2019-01-26T01:25:08.545Z,49.10
2019-01-26T01:27:37.972Z,48.83
2019-01-26T01:30:09.805Z,53.83
2019-01-26T01:32:39.183Z,54.73
2019-01-26T01:35:08.847Z,55.07
2019-01-26T01:37:38.237Z,52.67
2019-01-26T01:40:08.554Z,59.97
2019-01-26T01:42:39.824Z,53.40
2019-01-26T01:45:11.461Z,61.13
2019-01-26T01:47:41.036Z,62.73
2019-01-26T01:50:10.898Z,49.17
2019-01-26T01:52:40.351Z,55.33
2019-01-26T01:55:10.710Z,55.57
2019-01-26T01:57:40.350Z,50.30
2019-01-26T02:00:14.246Z,57.57
2019-01-26T02:02:43.713Z,49.00
2019-01-26T02:05:13.363Z,44.47
2019-01-26T02:07:45.572Z,40.10
2019-01-26T02:10:18.136Z,44.85
2019-01-26T02:12:49.270Z,41.53
2019-01-26T02:15:18.860Z,51.00
2019-01-26T02:17:48.261Z,46.50
2019-01-26T02:20:20.520Z,43.25
2019-01-26T02:22:50.083Z,44.17
2019-01-26T02:25:19.685Z,45.03
2019-01-26T02:27:49.093Z,46.10
2019-01-26T02:30:23.659Z,59.77
2019-01-26T02:32:54.602Z,47.00
2019-01-26T02:35:24.467Z,48.28
2019-01-26T02:37:55.556Z,51.33
2019-01-26T02:40:24.947Z,60.03
2019-01-26T02:42:55.622Z,46.25
2019-01-26T02:45:25.123Z,54.80
2019-01-26T02:47:54.526Z,55.10
2019-01-26T02:50:26.003Z,41.95
2019-01-26T02:52:55.370Z,45.37
2019-01-26T02:55:24.748Z,47.60
2019-01-26T02:57:54.317Z,65.45
2019-01-26T03:00:24.672Z,42.37
2019-01-26T03:02:54.512Z,47.90
2019-01-26T03:05:24.070Z,51.10
2019-01-26T03:07:53.460Z,41.40
2019-01-26T03:10:25.032Z,45.93
2019-01-26T03:12:54.648Z,42.90
2019-01-26T03:15:24.703Z,50.10
2019-01-26T03:17:55.186Z,50.90
2019-01-26T03:20:24.626Z,43.38
2019-01-26T03:22:55.023Z,45.07
2019-01-26T03:25:27.119Z,54.80
2019-01-26T03:27:56.701Z,49.50
2019-01-26T03:30:26.811Z,43.10
2019-01-26T03:32:56.376Z,48.33
2019-01-26T03:35:25.900Z,39.70
2019-01-26T03:37:55.320Z,49.37
2019-01-26T03:40:24.752Z,45.90
2019-01-26T03:42:54.203Z,68.97
2019-01-26T03:45:25.457Z,47.67
2019-01-26T03:47:54.849Z,54.00
2019-01-26T03:50:25.557Z,49.45
2019-01-26T03:52:55.024Z,59.93
2019-01-26T03:55:25.522Z,50.85
2019-01-26T03:57:55.055Z,45.38
2019-01-26T04:00:26.488Z,49.40
2019-01-26T04:02:55.886Z,41.23
2019-01-26T04:05:25.430Z,39.98
2019-01-26T04:07:55.080Z,40.80
2019-01-26T04:10:24.473Z,37.17
2019-01-26T04:12:54.001Z,44.23
2019-01-26T04:15:23.400Z,47.40
2019-01-26T04:17:52.786Z,45.80
2019-01-26T04:20:22.684Z,42.47
2019-01-26T04:22:52.364Z,43.97
2019-01-26T04:25:22.762Z,38.50
2019-01-26T04:27:52.394Z,35.28
2019-01-26T04:30:22.739Z,37.90
2019-01-26T04:32:52.117Z,32.67
2019-01-26T04:35:21.542Z,33.45
2019-01-26T04:37:52.728Z,30.53
2019-01-26T04:40:23.219Z,33.03
2019-01-26T04:42:52.917Z,29.70
2019-01-26T04:45:23.946Z,28.40
2019-01-26T04:47:53.330Z,33.15
2019-01-26T04:50:23.119Z,31.83
2019-01-26T04:52:54.343Z,31.45
2019-01-26T04:55:23.739Z,24.20
2019-01-26T04:57:53.401Z,27.43
2019-01-26T05:00:27.743Z,25.25
2019-01-26T05:02:59.113Z,24.02
2019-01-26T05:05:28.610Z,23.05
2019-01-26T05:07:58.010Z,22.32
2019-01-26T05:10:27.891Z,27.37
2019-01-26T05:12:57.556Z,24.50
2019-01-26T05:15:26.950Z,22.42
2019-01-26T05:17:56.341Z,26.55
2019-01-26T05:20:26.803Z,23.30
2019-01-26T05:22:58.053Z,22.40
2019-01-26T05:25:27.441Z,21.97
2019-01-26T05:27:56.976Z,24.47
2019-01-26T05:30:28.686Z,24.10
2019-01-26T05:32:58.090Z,25.37
2019-01-26T05:35:27.723Z,24.55
2019-01-26T05:37:57.102Z,26.17
2019-01-26T05:40:26.495Z,25.00
2019-01-26T05:42:56.030Z,25.70
2019-01-26T05:45:25.679Z,29.70
2019-01-26T05:47:56.312Z,25.95
2019-01-26T05:50:27.127Z,27.80
2019-01-26T05:52:56.654Z,23.00
2019-01-26T05:55:26.066Z,23.10
2019-01-26T05:57:55.802Z,25.97
2019-01-26T06:00:32.328Z,25.57
2019-01-26T06:03:01.723Z,20.57
2019-01-26T06:05:33.014Z,22.98
2019-01-26T06:08:02.456Z,23.97
2019-01-26T06:10:33.348Z,22.20
2019-01-26T06:13:04.415Z,23.47
2019-01-26T06:15:35.621Z,19.97
2019-01-26T06:18:05.036Z,26.57
2019-01-26T06:20:34.676Z,25.00
2019-01-26T06:23:04.865Z,24.43
2019-01-26T06:25:36.150Z,21.07
2019-01-26T06:28:06.054Z,29.03
2019-01-26T06:30:35.450Z,22.73
2019-01-26T06:33:04.876Z,21.57
2019-01-26T06:35:36.221Z,19.73
2019-01-26T06:38:05.643Z,23.67
2019-01-26T06:40:35.046Z,22.90
2019-01-26T06:43:04.737Z,21.87
2019-01-26T06:45:35.133Z,19.33
2019-01-26T06:48:05.763Z,21.37
2019-01-26T06:50:36.733Z,20.23
2019-01-26T06:53:06.156Z,23.17
2019-01-26T06:55:36.880Z,20.37
2019-01-26T06:58:07.316Z,21.43
2019-01-26T07:00:36.841Z,21.67
2019-01-26T07:03:06.227Z,20.57
2019-01-26T07:05:54.790Z,20.33
2019-01-26T07:08:24.667Z,21.02
2019-01-26T07:10:54.075Z,20.97
2019-01-26T07:13:24.748Z,20.17
2019-01-26T07:15:58.505Z,20.43
2019-01-26T07:18:28.421Z,18.63
2019-01-26T07:20:57.997Z,20.60
2019-01-26T07:23:28.514Z,20.77
2019-01-26T07:25:59.043Z,19.60
2019-01-26T07:28:28.656Z,20.60
2019-01-26T07:30:58.063Z,16.60
2019-01-26T07:33:27.472Z,17.67
2019-01-26T07:35:58.389Z,21.53
2019-01-26T07:38:27.874Z,17.75
2019-01-26T07:40:58.263Z,18.45
2019-01-26T07:43:27.954Z,22.87
2019-01-26T07:45:57.353Z,19.87
2019-01-26T07:48:28.064Z,18.60
2019-01-26T07:50:57.641Z,21.07
2019-01-26T07:53:27.020Z,21.87
2019-01-26T07:55:57.427Z,22.00
2019-01-26T07:58:27.177Z,17.00
2019-01-26T08:00:58.029Z,21.48
2019-01-26T08:03:27.438Z,17.50
2019-01-26T08:05:56.973Z,19.50
2019-01-26T08:08:28.263Z,20.57
2019-01-26T08:10:58.757Z,20.97
2019-01-26T08:13:28.304Z,17.23
2019-01-26T08:15:57.798Z,17.50
2019-01-26T08:18:27.216Z,18.15
2019-01-26T08:20:56.659Z,19.80
2019-01-26T08:23:26.412Z,19.53
2019-01-26T08:25:55.851Z,20.35
2019-01-26T08:28:25.559Z,19.57
2019-01-26T08:30:55.000Z,18.07
2019-01-26T08:33:24.466Z,18.35
2019-01-26T08:35:54.076Z,17.03
2019-01-26T08:38:23.480Z,19.48
2019-01-26T08:40:52.924Z,17.50
2019-01-26T08:43:23.641Z,17.27
2019-01-26T08:45:53.059Z,20.53
2019-01-26T08:48:22.550Z,18.50
2019-01-26T08:50:54.443Z,18.43
2019-01-26T08:53:23.849Z,17.67
2019-01-26T08:55:53.236Z,19.80
2019-01-26T08:58:22.694Z,16.33
2019-01-26T09:00:52.120Z,19.27
2019-01-26T09:03:48.351Z,19.95
2019-01-26T09:06:40.154Z,18.37
2019-01-26T09:09:11.909Z,20.63
2019-01-26T09:11:42.545Z,17.40
2019-01-26T09:14:11.976Z,18.13
2019-01-26T09:16:41.591Z,16.13
2019-01-26T09:19:10.983Z,16.27
2019-01-26T09:21:40.493Z,18.00
2019-01-26T09:24:09.921Z,18.13
2019-01-26T09:26:39.753Z,16.67
2019-01-26T09:29:10.249Z,15.87
2019-01-26T09:31:39.690Z,14.40
2019-01-26T09:34:09.080Z,14.93
2019-01-26T09:36:38.610Z,11.90
2019-01-26T09:39:12.181Z,14.77
2019-01-26T09:41:41.610Z,12.20
2019-01-26T09:44:11.214Z,14.10
2019-01-26T09:46:40.814Z,11.70
2019-01-26T09:49:10.221Z,14.90
2019-01-26T09:51:39.635Z,14.20
2019-01-26T09:54:09.199Z,13.43
2019-01-26T09:56:40.121Z,12.00
2019-01-26T09:59:10.728Z,14.78
2019-01-26T10:01:41.349Z,24.93
2019-01-26T10:04:10.772Z,20.80
2019-01-26T10:06:40.188Z,18.83
2019-01-26T10:09:13.173Z,19.23
2019-01-26T10:11:42.578Z,15.90
2019-01-26T10:14:11.976Z,20.37
2019-01-26T10:16:41.460Z,16.10
2019-01-26T10:19:10.869Z,18.50
2019-01-26T10:21:41.768Z,15.77
2019-01-26T10:24:12.693Z,15.00
2019-01-26T10:26:42.116Z,16.70
2019-01-26T10:29:11.584Z,15.80
2019-01-26T10:31:41.294Z,13.37
2019-01-26T10:34:10.844Z,15.00
2019-01-26T10:37:05.222Z,16.87
2019-01-26T10:39:34.801Z,16.70
2019-01-26T10:42:18.380Z,14.67
2019-01-26T10:44:49.279Z,15.83
2019-01-26T10:47:20.624Z,17.23
2019-01-26T10:49:50.032Z,14.77
2019-01-26T10:52:20.034Z,15.83
2019-01-26T10:54:50.444Z,16.23
2019-01-26T10:57:19.877Z,12.37
2019-01-26T10:59:50.907Z,14.80
2019-01-26T11:02:24.284Z,16.93
2019-01-26T11:04:53.758Z,14.87
2019-01-26T11:07:23.496Z,17.50
2019-01-26T11:09:54.084Z,17.80
2019-01-26T11:12:23.616Z,15.72
2019-01-26T11:14:53.420Z,16.85
2019-01-26T11:17:22.903Z,19.03
2019-01-26T11:19:52.424Z,15.57
2019-01-26T11:22:25.187Z,17.80
2019-01-26T11:24:54.591Z,16.77
2019-01-26T11:27:25.080Z,15.87
2019-01-26T11:29:54.745Z,17.97
2019-01-26T11:32:24.496Z,19.92
2019-01-26T11:34:54.088Z,22.00
2019-01-26T11:37:24.445Z,18.00
2019-01-26T11:39:59.711Z,18.82
2019-01-26T11:42:30.958Z,18.15
2019-01-26T11:45:14.533Z,12.95
2019-01-26T11:47:43.955Z,15.70
2019-01-26T11:50:18.728Z,15.13
2019-01-26T11:52:48.450Z,17.07
2019-01-26T11:55:43.772Z,15.33
2019-01-26T11:58:13.392Z,12.30
2019-01-26T12:00:59.448Z,15.33
2019-01-26T12:03:41.238Z,16.53
2019-01-26T12:06:24.854Z,13.93
2019-01-26T12:08:55.421Z,16.37
2019-01-26T12:11:24.827Z,16.05
2019-01-26T12:13:55.263Z,14.07
2019-01-26T12:16:27.043Z,15.37
2019-01-26T12:18:57.967Z,13.30
2019-01-26T12:21:27.461Z,16.93
2019-01-26T12:23:58.120Z,16.40
2019-01-26T12:26:27.770Z,14.75
2019-01-26T12:28:59.108Z,14.03
2019-01-26T12:31:28.798Z,14.70
2019-01-26T12:33:58.318Z,15.03
2019-01-26T12:36:28.834Z,13.80
2019-01-26T12:39:00.679Z,13.97
2019-01-26T12:41:31.210Z,11.70
2019-01-26T12:44:00.741Z,12.63
2019-01-26T12:46:31.723Z,16.50
2019-01-26T12:49:02.269Z,17.42
2019-01-26T12:51:31.673Z,18.60
2019-01-26T12:54:02.465Z,16.07
2019-01-26T12:56:32.026Z,14.30
2019-01-26T12:59:01.445Z,12.40
2019-01-26T13:01:31.034Z,14.78
2019-01-26T13:04:01.658Z,12.63
2019-01-26T13:06:31.904Z,15.80
2019-01-26T13:09:01.609Z,14.83
2019-01-26T13:11:33.614Z,14.30
2019-01-26T13:14:03.132Z,16.33
2019-01-26T13:16:36.290Z,14.23
2019-01-26T13:19:08.327Z,13.10
2019-01-26T13:21:37.735Z,14.70
2019-01-26T13:24:10.969Z,14.47
2019-01-26T13:26:41.024Z,13.20
2019-01-26T13:29:10.429Z,15.03
2019-01-26T13:31:40.014Z,12.80
2019-01-26T13:34:09.406Z,12.73
2019-01-26T13:36:40.951Z,14.20
2019-01-26T13:39:11.275Z,13.33
2019-01-26T13:41:42.479Z,12.40
2019-01-26T13:44:12.133Z,13.70
2019-01-26T13:46:41.589Z,15.30
2019-01-26T13:49:11.037Z,15.00
2019-01-26T13:51:40.450Z,10.60
2019-01-26T13:54:09.965Z,10.48
2019-01-26T13:56:39.422Z,11.80
2019-01-26T13:59:08.951Z,13.13
2019-01-26T14:01:38.625Z,11.10
2019-01-26T14:04:08.084Z,12.27
2019-01-26T14:06:54.655Z,11.60
2019-01-26T14:09:24.282Z,13.10
2019-01-26T14:11:53.669Z,11.97
2019-01-26T14:14:23.648Z,10.72
2019-01-26T14:16:54.104Z,14.97
2019-01-26T14:19:26.279Z,14.40
2019-01-26T14:21:58.478Z,17.20
2019-01-26T14:24:31.002Z,18.55
2019-01-26T14:27:00.716Z,17.00
2019-01-26T14:29:31.344Z,16.27
2019-01-26T14:32:01.024Z,21.37
2019-01-26T14:34:30.499Z,20.15
2019-01-26T14:37:00.771Z,15.93
2019-01-26T14:39:30.402Z,18.73
2019-01-26T14:41:59.920Z,16.67
2019-01-26T14:44:29.898Z,17.32
2019-01-26T14:46:59.365Z,20.85
2019-01-26T14:49:28.770Z,16.00
2019-01-26T14:52:00.600Z,19.70
2019-01-26T14:58:39.881Z,15.30
2019-01-26T15:01:09.314Z,20.97
2019-01-26T15:03:38.747Z,18.40
2019-01-26T15:06:08.307Z,18.73
2019-01-26T15:08:37.790Z,18.13
2019-01-26T15:11:07.317Z,19.10
2019-01-26T15:13:38.359Z,15.13
2019-01-26T15:16:07.830Z,12.70
2019-01-26T15:18:37.237Z,12.20
2019-01-26T15:21:06.938Z,12.17
2019-01-26T15:23:36.329Z,12.00
2019-01-26T15:26:06.036Z,12.13
2019-01-26T15:28:35.626Z,11.13
2019-01-26T15:31:06.118Z,9.73
2019-01-26T15:33:37.216Z,10.07
2019-01-26T15:36:09.115Z,10.10
2019-01-26T15:38:38.521Z,12.40
2019-01-26T15:41:07.930Z,10.20
2019-01-26T15:43:37.563Z,12.73
2019-01-26T15:46:07.391Z,13.00
2019-01-26T15:48:36.865Z,10.00
2019-01-26T15:51:06.410Z,9.50
2019-01-26T15:53:35.866Z,9.20
2019-01-26T15:56:05.505Z,9.47
2019-01-26T15:58:35.233Z,10.75
2019-01-26T16:01:06.212Z,8.67
2019-01-26T16:03:36.685Z,8.40
2019-01-26T16:06:07.988Z,9.95
2019-01-26T16:08:39.176Z,8.60
2019-01-26T16:11:08.577Z,10.20
2019-01-26T16:13:38.071Z,9.13
2019-01-26T16:16:08.083Z,9.50
2019-01-26T16:18:37.548Z,9.60
2019-01-26T16:21:07.311Z,9.63
2019-01-26T16:23:36.779Z,9.30
2019-01-26T16:26:06.608Z,9.63
2019-01-26T16:28:36.499Z,9.73
2019-01-26T16:31:06.098Z,10.80
2019-01-26T16:33:35.536Z,9.53
2019-01-26T16:36:05.481Z,10.80
2019-01-26T16:38:36.055Z,10.18
2019-01-26T16:41:06.749Z,9.83
2019-01-26T16:43:36.326Z,10.07
2019-01-26T16:46:06.856Z,11.70
2019-01-26T16:48:37.391Z,11.03
2019-01-26T16:51:08.762Z,9.90
2019-01-26T16:53:38.615Z,11.67
2019-01-26T16:56:08.267Z,10.33
2019-01-26T16:58:39.457Z,10.30
2019-01-26T17:01:10.032Z,10.60
2019-01-26T17:03:43.460Z,12.23
2019-01-26T17:06:13.081Z,13.37
2019-01-26T17:08:42.665Z,13.23
2019-01-26T17:11:12.419Z,15.33
2019-01-26T17:13:45.537Z,17.07
2019-01-26T17:16:17.885Z,12.80
2019-01-26T17:18:47.537Z,12.90
2019-01-26T17:21:17.847Z,13.57
2019-01-26T17:23:54.889Z,15.10
2019-01-26T17:26:25.486Z,13.43
2019-01-26T17:28:56.240Z,14.83
2019-01-26T17:31:25.625Z,13.13
2019-01-26T17:33:55.119Z,22.20
2019-01-26T17:36:24.804Z,16.70
2019-01-26T17:38:54.251Z,11.63
2019-01-26T17:41:26.960Z,15.53
2019-01-26T17:43:56.951Z,10.60
2019-01-26T17:46:26.375Z,11.15
2019-01-26T17:48:55.983Z,13.03
2019-01-26T17:51:25.806Z,12.23
2019-01-26T17:53:55.506Z,12.13
2019-01-26T17:56:26.033Z,13.98
2019-01-26T17:58:57.178Z,12.75
2019-01-26T18:01:27.922Z,11.37
2019-01-26T18:03:57.444Z,10.82
2019-01-26T18:06:28.161Z,20.10
2019-01-26T18:08:57.708Z,12.23
2019-01-26T18:11:27.169Z,10.27
2019-01-26T18:13:58.502Z,10.50
2019-01-26T18:16:28.008Z,12.13
2019-01-26T18:19:00.225Z,12.77
2019-01-26T18:21:30.040Z,14.57
2019-01-26T18:24:01.394Z,15.55
2019-01-26T18:26:30.857Z,15.83
2019-01-26T18:29:00.318Z,18.75
2019-01-26T18:31:30.820Z,16.87
2019-01-26T18:34:00.254Z,16.13
2019-01-26T18:36:29.702Z,16.17
2019-01-26T18:38:59.128Z,15.70
2019-01-26T18:41:28.539Z,19.70
2019-01-26T18:43:59.125Z,16.93
2019-01-26T18:46:28.617Z,17.37
2019-01-26T18:48:59.798Z,16.77
2019-01-26T18:51:29.235Z,16.15
2019-01-26T18:54:00.532Z,18.62
2019-01-26T18:56:30.922Z,19.90
2019-01-26T18:59:00.969Z,20.30
2019-01-26T19:01:30.414Z,21.57
2019-01-26T19:04:16.685Z,23.17
2019-01-26T19:06:46.114Z,23.03
2019-01-26T19:09:15.507Z,20.67
2019-01-26T19:11:46.685Z,21.87
2019-01-26T19:14:17.404Z,21.33
2019-01-26T19:16:48.808Z,20.63
2019-01-26T19:19:19.771Z,19.93
2019-01-26T19:21:49.246Z,20.67
2019-01-26T19:24:20.051Z,19.00
2019-01-26T19:26:52.396Z,22.40
2019-01-26T19:29:21.811Z,20.90
2019-01-26T19:31:51.294Z,19.13
2019-01-26T19:34:22.016Z,19.40
2019-01-26T19:36:51.396Z,18.60
2019-01-26T19:39:20.910Z,18.93
2019-01-26T19:41:50.536Z,17.37
2019-01-26T19:44:19.935Z,16.00
2019-01-26T19:46:51.246Z,14.77
2019-01-26T19:49:20.922Z,15.25
2019-01-26T19:51:51.506Z,16.90
2019-01-26T19:54:22.690Z,16.33
2019-01-26T19:56:52.413Z,14.63
2019-01-26T19:59:21.790Z,14.50
2019-01-26T20:01:52.978Z,15.40
2019-01-26T20:04:23.709Z,16.25
2019-01-26T20:06:53.878Z,16.40
2019-01-26T20:09:23.781Z,17.00
2019-01-26T20:11:53.355Z,16.85
2019-01-26T20:14:22.770Z,17.55
2019-01-26T20:16:52.194Z,18.77
2019-01-26T20:19:23.608Z,19.73
2019-01-26T20:21:54.167Z,18.23
2019-01-26T20:24:23.572Z,18.70
2019-01-26T20:26:54.581Z,19.07
2019-01-26T20:29:23.985Z,19.73
2019-01-26T20:31:53.403Z,18.37
2019-01-26T20:34:24.479Z,19.12
2019-01-26T20:36:53.905Z,17.20
2019-01-26T20:39:23.389Z,17.17
2019-01-26T20:41:54.790Z,17.70
2019-01-26T20:44:24.189Z,20.20
2019-01-26T20:46:53.636Z,18.17
2019-01-26T20:49:23.217Z,18.10
2019-01-26T20:51:52.620Z,22.73
2019-01-26T20:54:22.034Z,23.40
2019-01-26T20:56:51.671Z,21.03
2019-01-26T20:59:21.084Z,20.90
2019-01-26T21:01:51.511Z,24.27
2019-01-26T21:04:21.229Z,22.57
2019-01-26T21:06:51.443Z,20.97
2019-01-26T21:09:20.836Z,22.97
2019-01-26T21:11:50.785Z,22.03
2019-01-26T21:14:20.318Z,25.43
2019-01-26T21:16:50.926Z,25.37
2019-01-26T21:19:21.429Z,25.93
2019-01-26T21:21:52.702Z,25.87
2019-01-26T21:24:23.223Z,30.60
2019-01-26T21:26:54.228Z,28.30
2019-01-26T21:29:23.644Z,26.25
2019-01-26T21:31:53.128Z,26.40
2019-01-26T21:34:25.970Z,28.47
2019-01-26T21:36:55.394Z,28.63
2019-01-26T21:39:24.895Z,30.40
2019-01-26T21:41:54.442Z,26.23
2019-01-26T21:44:25.922Z,25.70
2019-01-26T21:46:55.356Z,26.23
2019-01-26T21:49:24.858Z,28.12
2019-01-26T21:51:54.432Z,28.45
2019-01-26T21:54:26.409Z,30.57
2019-01-26T21:56:56.102Z,25.97
2019-01-26T21:59:25.668Z,24.95
2019-01-26T22:01:56.607Z,27.73
2019-01-26T22:04:26.084Z,33.50
2019-01-26T22:06:56.702Z,32.30
2019-01-26T22:09:28.406Z,27.60
2019-01-26T22:11:59.800Z,27.20
2019-01-26T22:14:29.232Z,33.13
2019-01-26T22:16:58.681Z,29.25
2019-01-26T22:19:29.563Z,27.17
2019-01-26T22:22:01.967Z,30.57
2019-01-26T22:24:32.879Z,30.57
2019-01-26T22:27:02.756Z,29.07
2019-01-26T22:29:32.199Z,31.60
2019-01-26T22:32:03.111Z,29.53
2019-01-26T22:34:32.548Z,34.97
2019-01-26T22:37:02.976Z,31.57
2019-01-26T22:39:33.855Z,31.33
2019-01-26T22:42:03.488Z,29.33
2019-01-26T22:44:32.879Z,28.77
2019-01-26T22:47:03.423Z,30.17
2019-01-26T22:49:32.946Z,28.57
2019-01-26T22:52:03.949Z,29.10
2019-01-26T22:54:33.388Z,32.23
2019-01-26T22:57:04.089Z,30.93
2019-01-26T22:59:34.981Z,30.90
2019-01-26T23:02:05.078Z,29.82
2019-01-26T23:05:08.650Z,31.40
2019-01-26T23:07:51.034Z,31.57
2019-01-26T23:11:04.170Z,31.80
2019-01-26T23:13:57.885Z,31.60
2019-01-26T23:17:07.556Z,27.67
2019-01-26T23:19:57.866Z,29.57
2019-01-26T23:22:54.057Z,33.30
2019-01-26T23:26:07.227Z,29.30
2019-01-26T23:29:04.960Z,32.93
2019-01-26T23:31:34.624Z,36.60
2019-01-26T23:34:05.158Z,33.63
2019-01-26T23:36:34.872Z,33.42
2019-01-26T23:39:07.192Z,35.60
2019-01-26T23:41:40.334Z,31.63
2019-01-26T23:44:11.016Z,34.27
2019-01-26T23:46:43.666Z,37.23
2019-01-26T23:49:13.170Z,36.47
2019-01-26T23:51:42.777Z,35.47
2019-01-26T23:54:12.251Z,34.83
2019-01-26T23:56:43.402Z,34.43
2019-01-26T23:59:13.126Z,34.30
